Time;durP1;ratioP1;P1;durP2;ratioP2;P2;SDS_P1;SDS_P2;PMS_P1;PMS_P2;Temp;Humidity;BMP_temperature;BMP_pressure;BME280_temperature;BME280_humidity;BME280_pressure;Samples;Min_cycle;Max_cycle;Signal;HPM_P1;HPM_P2
2022/07/14 00:01:58;;;;;;;12.30;5.60;;;;;;;19.91;53.38;100282.60;108613;1276;21982;-80
2022/07/14 00:04:29;;;;;;;7.00;4.70;;;;;;;19.91;53.53;100281.21;108573;1276;21985;-80
2022/07/14 00:07:02;;;;;;;8.40;5.20;;;;;;;19.88;53.70;100278.24;108169;1278;22028;-80
2022/07/14 00:09:37;;;;;;;7.90;5.60;;;;;;;19.84;53.76;100279.38;108167;1279;23797;-80
2022/07/14 00:12:06;;;;;;;7.30;4.80;;;;;;;19.81;54.01;100284.55;108053;1279;23691;-79
2022/07/14 00:14:37;;;;;;;10.00;5.90;;;;;;;19.78;54.17;100280.52;108328;1275;21978;-80
2022/07/14 00:17:12;;;;;;;10.30;5.30;;;;;;;19.73;54.41;100278.96;108582;1273;22136;-80
2022/07/14 00:19:42;;;;;;;8.20;4.90;;;;;;;19.71;54.54;100281.15;108611;1273;21962;-80
2022/07/14 00:22:33;;;;;;;;;;;;;;;19.69;54.60;100279.65;108717;1273;23409;-81
2022/07/14 00:25:15;;;;;;;;;;;;;;;19.62;54.75;100278.86;109038;1267;21974;-80
2022/07/14 00:27:48;;;;;;;9.10;5.20;;;;;;;19.57;54.94;100277.86;109142;1267;21976;-80
2022/07/14 00:30:22;;;;;;;10.70;5.00;;;;;;;19.60;54.89;100272.74;109016;1268;21990;-80
2022/07/14 00:32:55;;;;;;;9.10;5.20;;;;;;;19.64;54.84;100271.48;108753;1268;22244;-80
2022/07/14 00:35:31;;;;;;;7.70;5.20;;;;;;;19.64;54.79;100271.16;108959;1270;22456;-80
2022/07/14 00:38:05;;;;;;;6.70;4.60;;;;;;;19.61;54.77;100268.70;109121;1267;24331;-80
2022/07/14 00:40:38;;;;;;;7.60;5.00;;;;;;;19.58;54.85;100266.70;109270;1267;21987;-80
2022/07/14 00:43:08;;;;;;;6.20;4.30;;;;;;;19.55;54.66;100264.78;108651;1273;22034;-80
2022/07/14 00:45:43;;;;;;;6.40;4.50;;;;;;;19.51;54.78;100261.58;108638;1273;21995;-80
2022/07/14 00:48:13;;;;;;;6.40;4.40;;;;;;;19.48;54.76;100256.84;108640;1273;22087;-80
2022/07/14 00:51:00;;;;;;;8.20;4.90;;;;;;;19.43;54.61;100255.59;108807;1273;21993;-80
2022/07/14 00:53:29;;;;;;;6.00;4.30;;;;;;;19.39;54.55;100262.34;108625;1273;23090;-80
2022/07/14 00:56:06;;;;;;;5.10;4.10;;;;;;;19.35;54.86;100270.84;108686;1273;21988;-81
2022/07/14 00:58:38;;;;;;;6.10;4.30;;;;;;;19.31;54.88;100272.38;108679;1273;22034;-80
2022/07/14 01:01:09;;;;;;;6.70;4.10;;;;;;;19.29;54.86;100271.45;108680;1267;21980;-80
2022/07/14 01:03:43;;;;;;;5.90;4.40;;;;;;;19.27;55.06;100266.79;109161;1267;24507;-80
2022/07/14 01:06:16;;;;;;;6.40;4.20;;;;;;;19.24;55.31;100261.63;108843;1267;23145;-80
2022/07/14 01:08:54;;;;;;;7.00;4.20;;;;;;;19.23;55.68;100261.44;109157;1265;23827;-80
2022/07/14 01:11:28;;;;;;;7.10;5.40;;;;;;;19.19;55.82;100265.73;109339;1267;22882;-80
2022/07/14 01:14:03;;;;;;;5.70;4.00;;;;;;;19.15;56.01;100274.23;109326;1267;23406;-80
2022/07/14 01:16:35;;;;;;;6.90;4.70;;;;;;;19.09;56.05;100292.27;109147;1267;22052;-79
2022/07/14 01:19:07;;;;;;;8.00;4.20;;;;;;;19.00;56.34;100289.45;108966;1270;22113;-79
2022/07/14 01:21:38;;;;;;;;;;;;;;;18.96;56.54;100285.39;108877;1270;22065;-80
2022/07/14 01:24:11;;;;;;;5.00;4.00;;;;;;;18.87;56.70;100284.91;108684;1270;21980;-80
2022/07/14 01:26:43;;;;;;;6.50;3.70;;;;;;;18.86;56.58;100285.18;108717;1270;23154;-80
2022/07/14 01:29:25;;;;;;;6.10;3.50;;;;;;;18.83;56.40;100282.17;108931;1270;23050;-81
2022/07/14 01:32:06;;;;;;;5.20;3.90;;;;;;;18.83;56.48;100284.67;108929;1270;22022;-80
2022/07/14 01:34:39;;;;;;;5.30;4.00;;;;;;;18.87;56.64;100286.39;108883;1270;23691;-80
2022/07/14 01:37:22;;;;;;;5.30;3.60;;;;;;;18.90;56.46;100288.58;109131;1266;22385;-80
2022/07/14 01:39:53;;;;;;;4.40;3.40;;;;;;;18.93;56.14;100293.52;109448;1261;23598;-81
2022/07/14 01:42:30;;;;;;;4.20;3.10;;;;;;;18.94;55.92;100293.84;109611;1262;21970;-80
2022/07/14 01:45:02;;;;;;;5.50;3.80;;;;;;;18.94;55.76;100298.67;109574;1262;22055;-80
2022/07/14 01:47:35;;;;;;;5.90;3.90;;;;;;;18.93;55.71;100301.52;109442;1261;23134;-80
2022/07/14 01:50:17;;;;;;;6.10;3.80;;;;;;;18.90;55.65;100303.66;109598;1261;21981;-80
2022/07/14 01:52:57;;;;;;;5.20;3.50;;;;;;;18.86;55.69;100300.17;109565;1261;21979;-80
2022/07/14 01:55:30;;;;;;;4.40;3.30;;;;;;;18.82;55.85;100299.80;109825;1262;22040;-80
2022/07/14 01:58:20;;;;;;;3.90;2.70;;;;;;;18.80;55.96;100297.30;109519;1262;21964;-80
2022/07/14 02:03:50;;;;;;;5.10;3.50;;;;;;;18.83;56.18;100299.13;109832;1261;22758;-79
2022/07/14 02:06:52;;;;;;;5.30;3.20;;;;;;;18.85;56.25;100301.90;109850;1262;22364;-80
2022/07/14 02:12:46;;;;;;;6.00;3.70;;;;;;;18.82;56.10;100297.49;109100;1267;22088;-80
2022/07/14 02:15:24;;;;;;;4.80;3.40;;;;;;;18.82;55.76;100298.77;108683;1270;22123;-80
2022/07/14 02:18:05;;;;;;;5.40;3.20;;;;;;;18.81;55.67;100301.45;108907;1270;23128;-80
2022/07/14 02:20:37;;;;;;;;;;;;;;;18.82;55.55;100307.20;108975;1270;22039;-80
2022/07/14 02:23:09;;;;;;;5.80;3.30;;;;;;;18.74;55.77;100308.77;108892;1270;23843;-80
2022/07/14 02:25:40;;;;;;;7.30;3.80;;;;;;;18.72;55.63;100307.47;108686;1273;21988;-80
2022/07/14 02:28:19;;;;;;;6.60;3.40;;;;;;;18.71;55.50;100303.85;108931;1270;22774;-80
2022/07/14 02:30:55;;;;;;;5.40;3.80;;;;;;;18.70;55.50;100297.92;109102;1266;21960;-80
2022/07/14 02:33:29;;;;;;;6.10;3.70;;;;;;;18.71;55.49;100300.27;109403;1261;23807;-82
2022/07/14 02:36:04;;;;;;;5.30;3.40;;;;;;;18.72;55.47;100304.00;109550;1262;23058;-80
2022/07/14 02:38:37;;;;;;;6.10;3.30;;;;;;;18.73;55.66;100302.80;109567;1262;22071;-80
2022/07/14 02:41:09;;;;;;;;;;;;;;;18.74;55.73;100302.47;109076;1267;22736;-79
2022/07/14 02:43:39;;;;;;;4.50;3.10;;;;;;;18.67;55.93;100303.02;108946;1267;23064;-79
2022/07/14 02:46:17;;;;;;;4.60;3.30;;;;;;;18.64;55.99;100306.42;108943;1267;23061;-79
2022/07/14 02:48:51;;;;;;;9.10;3.80;;;;;;;18.65;56.20;100309.01;108948;1267;22870;-79
2022/07/14 02:51:24;;;;;;;5.30;4.00;;;;;;;18.65;56.26;100309.59;109032;1267;21993;-80
2022/07/14 02:54:02;;;;;;;5.20;3.90;;;;;;;18.65;56.28;100313.63;108894;1267;22811;-80
2022/07/14 02:56:42;;;;;;;5.20;3.50;;;;;;;18.66;56.46;100309.62;108807;1268;21992;-80
2022/07/14 02:59:19;;;;;;;4.70;3.60;;;;;;;18.66;56.57;100315.20;109391;1260;23742;-80
2022/07/14 03:01:50;;;;;;;5.40;3.80;;;;;;;18.69;56.68;100314.80;109172;1267;22041;-80
2022/07/14 03:04:23;;;;;;;6.20;3.20;;;;;;;18.72;56.79;100320.68;109110;1267;22160;-79
2022/07/14 03:07:15;;;;;;;6.00;3.90;;;;;;;18.73;56.87;100323.76;109142;1267;21985;-79
2022/07/14 03:09:45;;;;;;;6.70;4.00;;;;;;;18.73;56.90;100325.23;108800;1273;23632;-79
2022/07/14 03:12:14;;;;;;;7.00;4.00;;;;;;;18.74;56.97;100324.34;108634;1273;23057;-79
2022/07/14 03:14:46;;;;;;;5.40;3.70;;;;;;;18.73;56.94;100326.73;108691;1273;23616;-79
2022/07/14 03:17:17;;;;;;;4.90;4.30;;;;;;;18.72;56.95;100334.02;108596;1273;21998;-79
2022/07/14 03:19:47;;;;;;;8.60;5.10;;;;;;;18.70;57.00;100342.98;108459;1273;22351;-79
2022/07/14 03:22:16;;;;;;;6.80;3.90;;;;;;;18.70;57.00;100342.71;108457;1273;21991;-79
2022/07/14 03:24:46;;;;;;;7.80;4.10;;;;;;;18.70;57.21;100342.34;108403;1278;22008;-78
2022/07/14 03:27:21;;;;;;;5.50;4.20;;;;;;;18.72;57.24;100345.88;108572;1267;23063;-80
2022/07/14 03:29:51;;;;;;;4.20;3.80;;;;;;;18.73;57.47;100342.61;108985;1270;21995;-79
2022/07/14 03:32:22;;;;;;;5.90;3.60;;;;;;;18.74;57.51;100345.33;108739;1270;21982;-80
2022/07/14 03:35:15;;;;;;;;;;;;;;;;;;;;;
2022/07/14 03:37:54;;;;;;;5.70;4.50;;;;;;;18.74;57.71;100353.73;108808;1270;23775;-79
2022/07/14 03:40:46;;;;;;;8.80;3.90;;;;;;;18.73;58.04;100356.20;108819;1270;23072;-79
2022/07/14 03:43:17;;;;;;;4.90;3.70;;;;;;;18.77;58.30;100360.82;108846;1267;22002;-80
2022/07/14 03:45:48;;;;;;;7.20;4.60;;;;;;;18.83;58.38;100363.15;109183;1264;22000;-80
2022/07/14 03:48:19;;;;;;;4.90;3.80;;;;;;;18.90;58.56;100366.09;108708;1273;24441;-82
2022/07/14 03:50:53;;;;;;;6.50;4.10;;;;;;;18.96;58.47;100362.47;108528;1279;22508;-82
2022/07/14 03:53:25;;;;;;;;;;;;;;;19.02;58.66;100360.86;108309;1279;21994;-82
2022/07/14 03:56:00;;;;;;;16.90;14.10;;;;;;;19.02;58.92;100372.63;107903;1284;21997;-82
2022/07/14 03:58:36;;;;;;;22.40;17.80;;;;;;;19.06;58.81;100380.83;108042;1284;23679;-82
2022/07/14 04:01:06;;;;;;;15.00;11.10;;;;;;;19.10;58.79;100383.61;107797;1287;23808;-80
2022/07/14 04:03:36;;;;;;;10.80;9.60;;;;;;;19.14;58.69;100375.09;107656;1288;23124;-83
2022/07/14 04:06:08;;;;;;;11.70;9.00;;;;;;;19.17;58.66;100373.65;107611;1287;22500;-82
2022/07/14 04:08:40;;;;;;;13.70;9.00;;;;;;;19.23;58.73;100375.27;107723;1285;24323;-83
2022/07/14 04:11:13;;;;;;;12.60;9.50;;;;;;;19.31;58.61;100377.73;108008;1279;23104;-83
2022/07/14 04:13:45;;;;;;;11.40;9.20;;;;;;;19.38;58.48;100375.27;108226;1279;22068;-82
2022/07/14 04:16:17;;;;;;;9.70;8.70;;;;;;;19.45;58.46;100375.46;107889;1285;22008;-82
2022/07/14 04:18:55;;;;;;;8.80;5.90;;;;;;;19.55;58.58;100381.83;107903;1285;21998;-81
2022/07/14 04:21:24;;;;;;;6.50;5.30;;;;;;;19.63;58.51;100383.45;107458;1288;22097;-83
2022/07/14 04:24:00;;;;;;;8.60;4.90;;;;;;;19.70;58.40;100388.76;107399;1291;22016;-82
2022/07/14 04:26:33;;;;;;;5.10;3.90;;;;;;;19.77;58.14;100386.94;107572;1285;22015;-84
2022/07/14 04:29:06;;;;;;;6.30;4.20;;;;;;;19.82;58.06;100382.42;107966;1285;22019;-83
2022/07/14 04:31:42;;;;;;;4.60;4.10;;;;;;;19.88;58.07;100385.31;107649;1285;22018;-83
2022/07/14 04:34:15;;;;;;;8.20;3.80;;;;;;;19.98;58.09;100389.13;107926;1284;22007;-85
2022/07/14 04:36:52;;;;;;;6.00;3.60;;;;;;;20.08;57.96;100393.89;107910;1283;22156;-83
2022/07/14 04:39:27;;;;;;;8.50;3.80;;;;;;;20.18;57.94;100397.04;107869;1284;22016;-82
2022/07/14 04:42:00;;;;;;;4.60;3.30;;;;;;;20.26;57.80;100398.62;107545;1285;22009;-81
2022/07/14 04:44:38;;;;;;;4.60;4.20;;;;;;;20.32;57.73;100393.85;107852;1284;22076;-81
2022/07/14 04:47:15;;;;;;;8.40;4.30;;;;;;;20.37;57.52;100394.60;108240;1281;22004;-83
2022/07/14 04:52:57;;;;;;;5.10;3.70;;;;;;;20.49;58.04;100400.31;108758;1273;22055;-82
2022/07/14 04:55:56;;;;;;;5.70;3.30;;;;;;;20.58;57.81;100407.33;108738;1273;22049;-82
2022/07/14 04:58:47;;;;;;;5.70;4.00;;;;;;;20.67;57.42;100407.41;108614;1273;21986;-82
2022/07/14 05:01:18;;;;;;;5.90;2.80;;;;;;;20.76;57.56;100402.67;109130;1267;21993;-82
2022/07/14 05:03:52;;;;;;;3.90;2.90;;;;;;;20.84;57.46;100403.04;108692;1273;21985;-81
2022/07/14 05:06:22;;;;;;;6.40;3.80;;;;;;;20.90;57.23;100403.33;108498;1276;21992;-82
2022/07/14 05:09:32;;;;;;;5.10;3.20;;;;;;;20.98;57.31;100405.54;108530;1277;23067;-82
2022/07/14 05:12:04;;;;;;;8.60;3.50;;;;;;;21.06;57.19;100410.17;108559;1277;23018;-82
2022/07/14 05:14:36;;;;;;;6.80;3.50;;;;;;;21.14;57.10;100408.25;108536;1279;21985;-83
2022/07/14 05:17:08;;;;;;;4.00;3.10;;;;;;;21.22;56.87;100406.88;108474;1277;23603;-82
2022/07/14 05:19:51;;;;;;;4.80;2.80;;;;;;;21.27;56.66;100408.91;108457;1277;22011;-82
2022/07/14 05:22:21;;;;;;;7.90;3.50;;;;;;;21.33;56.52;100411.83;108586;1274;21955;-83
2022/07/14 05:25:10;;;;;;;8.80;4.30;;;;;;;21.43;56.61;100415.77;109029;1270;22757;-83
2022/07/14 05:27:55;;;;;;;4.20;3.20;;;;;;;21.61;56.66;100418.30;108892;1273;22061;-83
2022/07/14 05:30:38;;;;;;;4.70;3.10;;;;;;;21.76;56.11;100420.29;109083;1270;21976;-83
2022/07/14 05:33:11;;;;;;;7.20;3.10;;;;;;;21.88;55.41;100420.88;108751;1274;22022;-84
2022/07/14 05:35:43;;;;;;;4.70;2.40;;;;;;;21.96;55.43;100418.33;108815;1276;22263;-82
2022/07/14 05:38:20;;;;;;;5.20;2.60;;;;;;;22.12;55.38;100418.58;108740;1276;22013;-83
2022/07/14 05:40:54;;;;;;;3.80;2.30;;;;;;;22.28;54.55;100423.29;109029;1270;23619;-85
2022/07/14 05:43:44;;;;;;;4.80;2.20;;;;;;;22.35;53.58;100425.87;109070;1273;22193;-83
2022/07/14 05:46:16;;;;;;;3.70;1.90;;;;;;;22.34;52.93;100428.56;108927;1273;22037;-86
2022/07/14 05:48:56;;;;;;;5.40;2.60;;;;;;;22.30;52.56;100433.72;109120;1270;22040;-83
2022/07/14 05:51:29;;;;;;;3.50;1.60;;;;;;;22.31;52.56;100435.56;109146;1270;21993;-85
2022/07/14 05:54:02;;;;;;;4.20;1.80;;;;;;;22.41;52.53;100437.08;109251;1267;23616;-84
2022/07/14 05:56:40;;;;;;;5.90;2.10;;;;;;;22.56;52.17;100435.59;109318;1267;22009;-83
2022/07/14 05:59:20;;;;;;;;;;;;;;;;;;;;;
2022/07/14 06:02:11;;;;;;;7.30;2.50;;;;;;;23.23;51.96;100435.35;109244;1267;22074;-83
2022/07/14 06:04:49;;;;;;;6.20;2.10;;;;;;;23.63;51.09;100435.48;109420;1262;21938;-83
2022/07/14 06:07:39;;;;;;;3.40;1.80;;;;;;;24.00;50.00;100440.55;109748;1260;23596;-85
2022/07/14 06:10:14;;;;;;;4.40;2.00;;;;;;;24.28;49.16;100436.66;109936;1261;21994;-84
2022/07/14 06:12:58;;;;;;;4.90;1.90;;;;;;;24.63;48.70;100438.76;109128;1267;22020;-83
2022/07/14 06:15:30;;;;;;;4.30;2.00;;;;;;;24.82;46.65;100440.45;109056;1269;21983;-83
2022/07/14 06:18:00;;;;;;;5.50;1.70;;;;;;;24.82;45.94;100445.53;108929;1273;23010;-84
2022/07/14 06:20:30;;;;;;;4.30;1.50;;;;;;;24.79;45.76;100447.58;108670;1276;22072;-83
2022/07/14 06:23:02;;;;;;;10.10;4.60;;;;;;;24.76;45.73;100453.17;108602;1276;22435;-83
2022/07/14 06:25:39;;;;;;;10.50;9.30;;;;;;;24.73;45.50;100454.60;108689;1276;22021;-83
2022/07/14 06:28:11;;;;;;;6.20;4.10;;;;;;;24.67;45.38;100462.40;108590;1276;22917;-83
2022/07/14 06:30:43;;;;;;;3.00;1.50;;;;;;;24.64;45.43;100464.05;108624;1273;21997;-83
2022/07/14 06:33:18;;;;;;;7.20;2.00;;;;;;;24.65;45.46;100464.61;108508;1279;22042;-81
2022/07/14 06:35:56;;;;;;;4.60;1.80;;;;;;;24.66;45.66;100467.08;108550;1273;23654;-83
2022/07/14 06:38:39;;;;;;;4.80;2.00;;;;;;;24.68;45.65;100465.91;109060;1270;21991;-81
2022/07/14 06:41:09;;;;;;;6.90;2.00;;;;;;;24.74;46.03;100469.75;109122;1267;21981;-82
2022/07/14 06:43:43;;;;;;;12.10;2.60;;;;;;;24.84;45.85;100477.60;108707;1276;22056;-80
2022/07/14 06:46:17;;;;;;;6.40;2.20;;;;;;;24.88;45.30;100478.97;108676;1273;21992;-78
2022/07/14 06:48:47;;;;;;;7.50;2.10;;;;;;;24.89;44.87;100473.85;108511;1275;22027;-91
2022/07/14 06:51:26;;;;;;;4.00;1.90;;;;;;;24.87;44.36;100472.16;108632;1274;21994;-81
2022/07/14 06:53:56;;;;;;;2.60;1.40;;;;;;;24.77;44.15;100469.49;108276;1279;23095;-82
2022/07/14 06:56:25;;;;;;;4.30;1.80;;;;;;;24.77;44.73;100464.41;108304;1280;23700;-85
2022/07/14 06:58:54;;;;;;;4.10;1.60;;;;;;;24.86;44.71;100466.80;108580;1273;23071;-82
2022/07/14 07:01:24;;;;;;;4.80;2.10;;;;;;;24.94;44.51;100467.88;108894;1269;23050;-82
2022/07/14 07:03:54;;;;;;;4.10;1.60;;;;;;;25.00;44.11;100470.14;109136;1267;22320;-82
2022/07/14 07:09:18;;;;;;;4.30;1.50;;;;;;;24.89;43.45;100466.88;109104;1267;22108;-82
2022/07/14 07:11:50;;;;;;;3.00;1.60;;;;;;;24.87;43.66;100469.55;109255;1264;23593;-82
2022/07/14 07:14:20;;;;;;;2.20;1.00;;;;;;;24.85;43.36;100471.70;109331;1267;22004;-83
2022/07/14 07:16:50;;;;;;;6.00;1.90;;;;;;;24.78;43.18;100478.30;109139;1267;24306;-82
2022/07/14 07:19:22;;;;;;;3.30;1.40;;;;;;;24.74;43.28;100480.33;109395;1265;23693;-82
2022/07/14 07:21:54;;;;;;;3.70;1.80;;;;;;;24.71;43.17;100481.71;109152;1267;22460;-81
2022/07/14 07:24:23;;;;;;;2.60;1.50;;;;;;;24.61;42.82;100476.98;109271;1267;23739;-80
2022/07/14 07:26:52;;;;;;;7.20;1.90;;;;;;;24.51;42.96;100478.52;109328;1267;23139;-81
2022/07/14 07:29:23;;;;;;;3.20;1.40;;;;;;;24.43;43.24;100480.23;109377;1267;22007;-83
2022/07/14 07:31:53;;;;;;;2.50;1.70;;;;;;;24.48;43.62;100481.57;109220;1267;24372;-82
2022/07/14 07:34:22;;;;;;;4.70;1.20;;;;;;;24.67;43.88;100477.89;109445;1265;22673;-81
2022/07/14 07:36:52;;;;;;;3.40;1.60;;;;;;;24.97;43.88;100472.45;109308;1267;22279;-81
2022/07/14 07:39:42;;;;;;;3.50;1.30;;;;;;;25.33;42.61;100465.15;109661;1261;21991;-81
2022/07/14 07:42:11;;;;;;;5.30;1.30;;;;;;;25.72;42.43;100462.36;109775;1262;21968;-82
2022/07/14 07:44:41;;;;;;;3.70;1.50;;;;;;;26.14;41.80;100458.05;109847;1261;23607;-81
2022/07/14 07:47:11;;;;;;;2.80;1.50;;;;;;;26.49;40.85;100455.16;109896;1263;23064;-80
2022/07/14 07:49:40;;;;;;;17.10;2.60;;;;;;;26.82;40.19;100455.26;109908;1263;22051;-78
2022/07/14 07:52:10;;;;;;;9.50;1.90;;;;;;;27.07;39.75;100450.50;109822;1263;21982;-78
2022/07/14 07:54:39;;;;;;;4.20;1.40;;;;;;;27.27;39.79;100442.34;109373;1261;22036;-78
2022/07/14 07:57:28;;;;;;;8.80;1.70;;;;;;;27.54;39.14;100444.34;109732;1260;23677;-79
2022/07/14 07:59:57;;;;;;;3.00;1.20;;;;;;;27.72;38.31;100439.25;109604;1261;22040;-79
2022/07/14 08:02:26;;;;;;;3.20;1.80;;;;;;;27.88;37.69;100436.48;109758;1263;21987;-81
2022/07/14 08:04:56;;;;;;;2.90;1.30;;;;;;;28.05;37.68;100439.90;109486;1260;23024;-80
2022/07/14 08:07:25;;;;;;;5.70;1.80;;;;;;;28.25;37.45;100442.76;109128;1267;22070;-79
2022/07/14 08:09:54;;;;;;;4.30;1.40;;;;;;;28.47;37.06;100438.84;109117;1267;23065;-78
2022/07/14 08:12:27;;;;;;;4.60;1.50;;;;;;;28.68;36.82;100442.31;108926;1267;21982;-79
2022/07/14 08:14:56;;;;;;;9.20;3.10;;;;;;;28.81;36.43;100440.39;108685;1273;23098;-78
2022/07/14 08:17:25;;;;;;;7.10;2.00;;;;;;;28.94;36.52;100437.70;108423;1276;23873;-77
2022/07/14 08:19:55;;;;;;;2.90;1.50;;;;;;;29.10;36.40;100439.35;108271;1279;23091;-77
2022/07/14 08:22:29;;;;;;;3.20;1.40;;;;;;;29.22;35.97;100443.17;108316;1279;23725;-78
2022/07/14 08:24:58;;;;;;;3.90;1.10;;;;;;;29.20;35.57;100439.23;108295;1273;22052;-77
2022/07/14 08:27:37;;;;;;;4.50;1.50;;;;;;;29.09;35.50;100437.77;109151;1272;22028;-77
2022/07/14 08:30:08;;;;;;;2.70;2.00;;;;;;;28.96;35.37;100438.66;109040;1273;21985;-80
2022/07/14 08:32:51;;;;;;;2.90;1.20;;;;;;;28.88;35.96;100441.85;109303;1270;22026;-80
2022/07/14 08:35:25;;;;;;;3.10;1.40;;;;;;;28.88;35.71;100439.39;108915;1274;23674;-78
2022/07/14 08:37:55;;;;;;;4.30;1.80;;;;;;;28.88;35.53;100436.35;108820;1270;22057;-79
2022/07/14 08:40:26;;;;;;;10.10;2.20;;;;;;;28.79;35.68;100436.61;109500;1270;22877;-81
2022/07/14 08:43:01;;;;;;;10.90;2.00;;;;;;;28.70;35.90;100440.38;109413;1268;22020;-80
2022/07/14 08:45:35;;;;;;;7.80;2.30;;;;;;;28.62;35.87;100440.13;108928;1270;23177;-80
2022/07/14 08:48:06;;;;;;;10.30;2.30;;;;;;;28.45;35.38;100442.56;109859;1267;24312;-80
2022/07/14 08:50:38;;;;;;;3.10;1.30;;;;;;;28.12;35.52;100441.90;109837;1273;22992;-79
2022/07/14 08:53:12;;;;;;;4.50;1.70;;;;;;;27.75;35.66;100440.00;109504;1270;21990;-78
2022/07/14 08:55:41;;;;;;;3.20;1.20;;;;;;;27.42;35.95;100432.62;109345;1267;22055;-77
2022/07/14 08:58:10;;;;;;;4.00;1.70;;;;;;;27.20;36.58;100432.48;108960;1270;22021;-78
2022/07/14 09:00:40;;;;;;;3.00;1.40;;;;;;;27.01;37.01;100428.70;109252;1267;23717;-79
2022/07/14 09:03:09;;;;;;;4.20;1.40;;;;;;;26.87;37.05;100429.77;109270;1267;23058;-75
2022/07/14 09:06:06;;;;;;;4.20;1.50;;;;;;;26.71;37.22;100426.98;109319;1267;22294;-77
2022/07/14 09:08:55;;;;;;;2.70;1.30;;;;;;;26.58;37.54;100430.84;109085;1270;21990;-76
2022/07/14 09:11:27;;;;;;;2.90;1.40;;;;;;;26.46;37.82;100433.92;108813;1271;22093;-77
2022/07/14 09:14:09;;;;;;;5.70;1.70;;;;;;;26.38;37.90;100432.13;108868;1270;24366;-78
2022/07/14 09:16:39;;;;;;;3.40;1.30;;;;;;;26.26;37.77;100433.09;109011;1267;23499;-79
2022/07/14 09:19:13;;;;;;;5.00;1.70;;;;;;;26.19;38.38;100432.11;109135;1270;21978;-79
2022/07/14 09:21:52;;;;;;;12.80;3.40;;;;;;;26.31;39.02;100431.46;109154;1271;23869;-78
2022/07/14 09:24:22;;;;;;;10.00;1.20;;;;;;;26.63;39.29;100433.87;108554;1276;22462;-78
2022/07/14 09:26:54;;;;;;;4.20;1.60;;;;;;;26.99;38.91;100436.09;108987;1269;24309;-75
2022/07/14 09:29:29;;;;;;;4.70;1.70;;;;;;;27.10;37.31;100436.63;109779;1269;21952;-79
2022/07/14 09:32:00;;;;;;;6.00;1.70;;;;;;;27.01;37.28;100429.96;109351;1269;21988;-81
2022/07/14 09:34:36;;;;;;;3.50;1.80;;;;;;;27.05;37.48;100425.17;109724;1267;21947;-78
2022/07/14 09:37:21;;;;;;;3.50;1.30;;;;;;;27.05;37.27;100424.48;109624;1267;22145;-79
2022/07/14 09:39:59;;;;;;;4.80;1.90;;;;;;;27.08;37.08;100425.71;109797;1267;23773;-79
2022/07/14 09:42:57;;;;;;;3.30;1.60;;;;;;;27.14;37.12;100419.15;109398;1267;21984;-77
2022/07/14 09:45:39;;;;;;;5.90;1.60;;;;;;;27.36;37.18;100417.50;109476;1267;22162;-78
2022/07/14 09:48:20;;;;;;;5.30;2.00;;;;;;;27.63;36.54;100421.57;109573;1270;22407;-80
2022/07/14 09:50:52;;;;;;;4.20;1.70;;;;;;;27.88;35.90;100420.19;109166;1270;21973;-78
2022/07/14 09:53:35;;;;;;;5.70;1.40;;;;;;;28.01;35.51;100416.08;109143;1267;23068;-78
2022/07/14 09:56:09;;;;;;;7.10;2.70;;;;;;;28.14;35.71;100412.84;109306;1267;22157;-79
2022/07/14 09:58:59;;;;;;;3.90;1.60;;;;;;;28.35;35.32;100417.95;109646;1266;22014;-80
2022/07/14 10:01:30;;;;;;;5.00;1.40;;;;;;;28.55;34.93;100417.79;110408;1264;21995;-79
2022/07/14 10:04:03;;;;;;;4.80;1.80;;;;;;;28.73;34.40;100416.44;110274;1263;21947;-78
2022/07/14 10:06:40;;;;;;;2.50;1.40;;;;;;;28.78;33.87;100411.33;109302;1269;21979;-80
2022/07/14 10:09:16;;;;;;;5.40;2.00;;;;;;;28.83;33.69;100409.27;109153;1267;22008;-79
2022/07/14 10:11:52;;;;;;;3.50;1.70;;;;;;;28.89;33.61;100408.70;109477;1267;22005;-79
2022/07/14 10:14:22;;;;;;;5.60;1.60;;;;;;;28.98;33.56;100410.89;109614;1267;22048;-82
2022/07/14 10:16:52;;;;;;;;;;;;;;;28.96;33.18;100404.61;109662;1267;23689;-80
2022/07/14 10:19:21;;;;;;;4.00;1.30;;;;;;;28.89;33.61;100401.69;109566;1265;22744;-81
2022/07/14 10:21:53;;;;;;;2.40;1.10;;;;;;;28.92;33.34;100408.56;109654;1267;23728;-80
2022/07/14 10:24:30;;;;;;;3.70;1.00;;;;;;;28.92;32.93;100407.58;109884;1265;22182;-81
2022/07/14 10:27:05;;;;;;;2.90;1.20;;;;;;;28.83;32.55;100413.71;109590;1265;21941;-81
2022/07/14 10:29:40;;;;;;;6.10;1.30;;;;;;;28.70;32.53;100415.97;109381;1267;22930;-83
2022/07/14 10:32:25;;;;;;;4.00;1.40;;;;;;;28.63;33.01;100412.47;109913;1260;22879;-81
2022/07/14 10:36:07;;;;;;;6.40;1.90;;;;;;;28.54;32.85;100413.36;110064;1263;22976;-81
2022/07/14 10:39:18;;;;;;;4.20;1.50;;;;;;;28.33;32.76;100408.90;110378;1263;21938;-79
2022/07/14 10:42:15;;;;;;;4.10;0.90;;;;;;;28.19;32.97;100405.97;109875;1267;22012;-82
2022/07/14 10:44:50;;;;;;;7.80;1.30;;;;;;;28.05;33.25;100403.02;109989;1267;22275;-79
2022/07/14 10:47:25;;;;;;;8.70;1.60;;;;;;;28.00;33.57;100401.59;109965;1267;21941;-79
2022/07/14 10:50:11;;;;;;;2.70;1.20;;;;;;;27.98;33.37;100400.58;109021;1273;21985;-82
2022/07/14 10:53:04;;;;;;;5.40;2.10;;;;;;;27.87;33.67;100397.94;108708;1273;22762;-76
2022/07/14 10:55:37;;;;;;;3.50;1.30;;;;;;;27.83;33.59;100396.44;108640;1273;22770;-75
2022/07/14 10:58:27;;;;;;;2.10;1.00;;;;;;;27.69;33.57;100390.04;108721;1273;21984;-75
2022/07/14 11:00:58;;;;;;;7.60;1.30;;;;;;;27.58;33.97;100392.34;108939;1267;23729;-74
2022/07/14 11:03:39;;;;;;;3.30;1.60;;;;;;;27.50;34.03;100384.94;109255;1267;22054;-77
2022/07/14 11:06:11;;;;;;;4.50;3.40;;;;;;;27.42;33.84;100384.50;108323;1276;22674;-76
2022/07/14 11:09:41;;;;;;;3.50;1.80;;;;;;;27.31;33.94;100383.67;108769;1270;22864;-76
2022/07/14 11:12:14;;;;;;;2.60;1.80;;;;;;;27.17;33.96;100378.91;108590;1272;21990;-75
2022/07/14 11:14:44;;;;;;;5.10;4.20;;;;;;;27.04;34.03;100374.00;108645;1273;22002;-76
2022/07/14 11:17:39;;;;;;;9.10;4.10;;;;;;;26.93;34.28;100374.36;108729;1273;22061;-76
2022/07/14 11:20:12;;;;;;;3.70;2.40;;;;;;;26.83;34.60;100381.48;108437;1276;22799;-76
2022/07/14 11:23:16;;;;;;;3.00;1.30;;;;;;;26.72;34.34;100380.55;108444;1276;23624;-77
2022/07/14 11:25:46;;;;;;;7.80;5.40;;;;;;;26.50;34.74;100383.38;108741;1273;22216;-76
2022/07/14 11:28:44;;;;;;;9.50;5.20;;;;;;;26.41;34.97;100384.50;108750;1271;21984;-74
2022/07/14 11:31:24;;;;;;;5.50;1.90;;;;;;;26.30;35.30;100383.32;108852;1270;22016;-73
2022/07/14 11:37:03;;;;;;;4.60;1.90;;;;;;;26.14;35.42;100374.11;108827;1273;24441;-75
2022/07/14 11:39:52;;;;;;;5.60;1.90;;;;;;;26.04;35.63;100373.41;109065;1267;22211;-75
2022/07/14 11:42:22;;;;;;;10.90;2.30;;;;;;;25.94;35.93;100372.86;108927;1270;23764;-75
2022/07/14 11:44:52;;;;;;;6.10;3.40;;;;;;;25.89;36.31;100368.48;109155;1267;21989;-75
2022/07/14 11:47:29;;;;;;;5.80;2.80;;;;;;;25.93;36.61;100362.63;109272;1260;23063;-76
2022/07/14 11:50:10;;;;;;;12.70;2.10;;;;;;;25.99;36.66;100359.23;109621;1261;22046;-76
2022/07/14 11:52:41;;;;;;;6.50;1.90;;;;;;;26.01;36.23;100360.47;109694;1261;23479;-76
2022/07/14 11:55:15;;;;;;;3.80;1.40;;;;;;;25.99;36.12;100360.25;109374;1261;330761;-75
2022/07/14 11:57:51;;;;;;;4.60;1.70;;;;;;;26.01;36.21;100364.60;110232;1260;21974;-75
2022/07/14 12:00:20;;;;;;;6.40;1.70;;;;;;;26.06;35.88;100363.73;109713;1260;22533;-77
2022/07/14 12:02:57;;;;;;;6.20;1.70;;;;;;;26.10;35.85;100360.14;109970;1260;22074;-78
2022/07/14 12:05:28;;;;;;;8.30;1.80;;;;;;;26.15;35.64;100358.36;109876;1261;21966;-79
2022/07/14 12:08:02;;;;;;;5.10;1.20;;;;;;;26.14;35.50;100356.02;109968;1261;22852;-79
2022/07/14 12:10:41;;;;;;;8.10;2.00;;;;;;;26.14;35.86;100356.79;109991;1261;21998;-81
2022/07/14 12:13:10;;;;;;;5.40;2.00;;;;;;;26.21;35.90;100358.62;109604;1260;22082;-79
2022/07/14 12:15:42;;;;;;;5.20;2.50;;;;;;;26.28;35.66;100350.99;109769;1261;23065;-79
2022/07/14 12:18:12;;;;;;;5.10;1.70;;;;;;;26.27;35.55;100342.80;109801;1260;21983;-83